KFRH/FRH METAR and TAF weather

Enter ICAO airport designator
Station Type Date Time Source
KFRH METAR 2019/10/21 06:15 UTC NOAA

KFRH 210615Z AUTO 12004KT 10SM CLR 14/11 A2986 RMK AO1


Station Type Date Time Source
KFRH Decoded METAR 2019/10/21 06:15 UTC NOAA

Station name not available
Oct 21, 2019 - 02:15 AM EDT / 2019.10.21 0615 UTC
Wind: from the ESE (120 degrees) at 5 MPH (4 KT):0
Visibility: 10 mile(s):0
Sky conditions: clear
Temperature: 57 F (14 C)
Dew Point: 51 F (11 C)
Relative Humidity: 82%
Pressure (altimeter): 29.86 in. Hg (1011 hPa)
ob: KFRH 210615Z AUTO 12004KT 10SM CLR 14/11 A2986 RMK AO1
cycle: 6

Station Type Date Time Source
KFRH TAF UTC NOAA

Error!

Example: see airport list